Time;durP1;ratioP1;P1;durP2;ratioP2;P2;SDS_P1;SDS_P2;PMS_P1;PMS_P2;Temp;Humidity;BMP_temperature;BMP_pressure;BME280_temperature;BME280_humidity;BME280_pressure;Samples;Min_cycle;Max_cycle;Signal;HPM_P1;HPM_P2
2022/01/04 00:00:10;;;;;;;4.15;2.00;;;9.10;99.90;;;;;;5072682;28;20024;-77
2022/01/04 00:02:39;;;;;;;7.75;2.60;;;9.20;99.90;;;;;;5071015;28;20089;-77
2022/01/04 00:05:06;;;;;;;6.78;2.90;;;9.10;99.90;;;;;;5071393;28;20023;-77
2022/01/04 00:07:32;;;;;;;6.53;2.22;;;9.10;99.90;;;;;;5072313;28;20091;-78
2022/01/04 00:09:59;;;;;;;3.10;1.88;;;9.10;99.90;;;;;;5072395;28;20113;-77
2022/01/04 00:15:09;;;;;;;6.55;3.05;;;9.10;99.90;;;;;;5071181;28;20413;-79
2022/01/04 00:17:35;;;;;;;8.32;2.20;;;9.10;99.90;;;;;;5070961;28;20048;-78
2022/01/04 00:20:02;;;;;;;6.35;2.08;;;9.20;99.90;;;;;;5073739;28;20032;-77
2022/01/04 00:22:28;;;;;;;4.57;2.53;;;9.20;99.90;;;;;;5076081;28;20055;-76
2022/01/04 00:24:53;;;;;;;7.28;2.40;;;9.10;99.90;;;;;;5076160;28;20032;-76
2022/01/04 00:27:19;;;;;;;8.65;2.70;;;9.10;99.90;;;;;;5075458;28;20027;-76
2022/01/04 00:29:45;;;;;;;4.97;2.47;;;9.00;99.90;;;;;;5074851;28;20032;-77
2022/01/04 00:32:11;;;;;;;10.93;2.75;;;9.00;99.90;;;;;;5074712;28;20384;-77
2022/01/04 00:34:37;;;;;;;7.82;2.70;;;9.00;99.90;;;;;;5075902;28;20028;-75
2022/01/04 00:37:03;;;;;;;6.15;2.58;;;9.00;99.90;;;;;;5075942;28;20033;-76
2022/01/04 00:39:29;;;;;;;6.47;2.70;;;9.20;99.90;;;;;;5075889;28;20036;-77
2022/01/04 00:41:54;;;;;;;7.18;2.63;;;9.10;99.90;;;;;;5074205;28;20028;-78
2022/01/04 00:44:20;;;;;;;5.88;2.78;;;8.90;99.90;;;;;;5075802;28;20025;-79
2022/01/04 00:46:46;;;;;;;7.63;3.30;;;8.90;99.90;;;;;;5075626;28;20504;-78
2022/01/04 00:49:12;;;;;;;5.63;3.15;;;9.00;99.90;;;;;;5076047;28;20350;-81
2022/01/04 00:51:39;;;;;;;7.07;3.05;;;8.90;99.90;;;;;;5075650;28;20032;-80
2022/01/04 00:54:05;;;;;;;6.13;2.92;;;8.80;99.90;;;;;;5074527;28;20401;-78
2022/01/04 00:56:31;;;;;;;6.68;3.35;;;8.80;99.90;;;;;;5075419;28;20026;-78
2022/01/04 00:58:57;;;;;;;5.43;3.30;;;8.90;99.90;;;;;;5077696;28;20032;-80
2022/01/04 01:01:23;;;;;;;7.00;3.40;;;8.90;99.90;;;;;;5075590;28;20067;-78
2022/01/04 01:03:49;;;;;;;5.75;3.70;;;8.90;99.90;;;;;;5075668;28;20119;-78
2022/01/04 01:06:15;;;;;;;6.53;3.75;;;8.90;99.90;;;;;;5075561;28;20028;-77
2022/01/04 01:08:41;;;;;;;9.25;4.75;;;8.80;99.90;;;;;;5075103;28;20026;-78
2022/01/04 01:11:08;;;;;;;5.75;3.88;;;8.80;99.90;;;;;;5082478;28;20016;-73
2022/01/04 01:13:34;;;;;;;8.60;3.97;;;8.80;99.90;;;;;;5079069;28;20111;-77
2022/01/04 01:16:00;;;;;;;9.88;4.22;;;8.70;99.90;;;;;;5075409;28;20115;-77
2022/01/04 01:18:26;;;;;;;8.55;4.43;;;8.70;99.90;;;;;;5075039;28;20025;-78
2022/01/04 01:20:52;;;;;;;9.07;4.20;;;8.70;99.90;;;;;;5073766;28;20029;-78
2022/01/04 01:23:19;;;;;;;8.70;4.43;;;8.70;99.90;;;;;;5069487;28;20048;-79
2022/01/04 01:25:45;;;;;;;7.43;5.05;;;8.80;99.90;;;;;;5058666;28;20031;-78
2022/01/04 01:28:11;;;;;;;9.20;5.32;;;8.80;99.90;;;;;;5074745;28;20028;-78
2022/01/04 01:30:40;;;;;;;5.32;4.57;;;8.80;99.90;;;;;;5074858;28;20477;-78
2022/01/04 01:33:05;;;;;;;7.35;5.05;;;8.80;99.90;;;;;;5074331;28;20405;-78
2022/01/04 01:35:31;;;;;;;7.72;4.00;;;8.80;99.90;;;;;;5074899;28;20028;-79
2022/01/04 01:37:58;;;;;;;9.18;4.22;;;8.80;99.90;;;;;;5074718;28;20032;-76
2022/01/04 01:40:24;;;;;;;9.75;5.00;;;8.70;99.90;;;;;;5074660;28;20107;-78
2022/01/04 01:42:50;;;;;;;11.27;4.85;;;8.80;99.90;;;;;;5074504;28;20040;-79
2022/01/04 01:45:17;;;;;;;9.63;4.47;;;8.70;99.90;;;;;;5074761;28;20078;-79
2022/01/04 01:47:44;;;;;;;8.10;4.75;;;8.70;99.90;;;;;;5074597;28;20020;-79
2022/01/04 01:50:11;;;;;;;11.43;5.57;;;8.80;99.90;;;;;;5073457;28;20052;-78
2022/01/04 01:52:39;;;;;;;8.90;5.05;;;8.60;99.90;;;;;;5074164;28;20473;-78
2022/01/04 01:55:06;;;;;;;7.13;4.72;;;8.60;99.90;;;;;;5073266;28;20036;-79
2022/01/04 01:57:31;;;;;;;7.97;5.45;;;8.60;99.90;;;;;;5074488;28;20477;-78
2022/01/04 01:59:58;;;;;;;8.48;5.43;;;8.60;99.90;;;;;;5074422;28;20028;-79
2022/01/04 02:02:23;;;;;;;7.65;4.90;;;8.70;99.90;;;;;;5073012;28;20503;-79
2022/01/04 02:04:49;;;;;;;11.32;5.43;;;8.70;99.90;;;;;;5074090;28;20032;-79
2022/01/04 02:07:18;;;;;;;10.90;5.63;;;8.60;99.90;;;;;;5074193;28;20025;-78
2022/01/04 02:09:52;;;;;;;10.45;5.78;;;8.70;99.90;;;;;;5074016;28;20037;-78
2022/01/04 02:12:19;;;;;;;6.93;5.40;;;8.70;99.90;;;;;;5074291;28;20606;-80
2022/01/04 02:14:50;;;;;;;11.52;6.45;;;8.70;99.90;;;;;;5074033;28;20029;-80
2022/01/04 02:17:16;;;;;;;11.40;6.05;;;8.80;99.90;;;;;;5074128;28;20037;-80
2022/01/04 02:19:42;;;;;;;10.80;7.18;;;8.70;99.90;;;;;;5073780;28;20174;-80
2022/01/04 02:22:08;;;;;;;11.00;6.65;;;8.70;99.90;;;;;;5073703;28;20127;-80
2022/01/04 02:24:33;;;;;;;9.40;6.80;;;8.60;99.90;;;;;;5074206;28;20382;-80
2022/01/04 02:27:00;;;;;;;13.63;6.85;;;8.80;99.90;;;;;;5072436;28;20035;-80
2022/01/04 02:29:26;;;;;;;13.20;7.65;;;8.80;99.90;;;;;;5073789;28;20479;-80
2022/01/04 02:31:53;;;;;;;10.20;7.38;;;8.70;99.90;;;;;;5073780;28;20028;-80
2022/01/04 02:34:19;;;;;;;10.18;6.93;;;8.70;99.90;;;;;;5073772;28;20051;-80
2022/01/04 02:36:44;;;;;;;7.80;6.32;;;8.70;99.90;;;;;;5073310;28;20021;-80
2022/01/04 02:39:11;;;;;;;16.35;6.43;;;8.60;99.90;;;;;;5073444;28;20028;-80
2022/01/04 02:41:37;;;;;;;8.80;6.78;;;8.70;99.90;;;;;;5073613;28;20079;-80
2022/01/04 02:44:04;;;;;;;9.48;7.55;;;8.70;99.90;;;;;;5072302;28;20040;-80
2022/01/04 02:46:30;;;;;;;9.60;8.40;;;8.60;99.90;;;;;;5072318;28;20017;-79
2022/01/04 02:48:55;;;;;;;12.45;9.13;;;8.60;99.90;;;;;;5073260;28;20033;-80
2022/01/04 02:51:23;;;;;;;11.85;9.05;;;8.70;99.90;;;;;;5072994;28;20021;-80
2022/01/04 02:53:49;;;;;;;12.75;8.75;;;8.70;99.90;;;;;;5073538;28;20487;-80
2022/01/04 02:56:15;;;;;;;11.80;8.90;;;8.60;99.90;;;;;;5073196;28;20024;-79
2022/01/04 02:58:41;;;;;;;13.77;9.75;;;8.60;99.90;;;;;;5073289;28;20067;-80
2022/01/04 03:01:07;;;;;;;14.10;9.20;;;8.60;99.90;;;;;;5073106;28;20048;-79
2022/01/04 03:03:33;;;;;;;14.93;9.85;;;8.50;99.90;;;;;;5073217;28;20033;-80
2022/01/04 03:05:59;;;;;;;14.82;10.40;;;8.50;99.90;;;;;;5054877;28;20059;-79
2022/01/04 03:08:25;;;;;;;14.25;9.75;;;8.50;99.90;;;;;;5073172;28;20064;-79
2022/01/04 03:10:51;;;;;;;17.90;10.02;;;8.50;99.90;;;;;;5071854;28;20064;-80
2022/01/04 03:13:17;;;;;;;18.80;12.20;;;8.60;99.90;;;;;;5073183;28;20037;-80
2022/01/04 03:15:44;;;;;;;21.55;11.13;;;8.60;99.90;;;;;;5072773;28;20146;-80
2022/01/04 03:18:10;;;;;;;14.85;11.80;;;8.70;99.90;;;;;;5073064;28;20354;-80
2022/01/04 03:20:35;;;;;;;16.20;11.20;;;8.70;99.90;;;;;;5072709;28;20061;-80
2022/01/04 03:23:03;;;;;;;14.93;11.23;;;8.60;99.90;;;;;;5072825;28;20496;-80
2022/01/04 03:25:29;;;;;;;18.45;12.77;;;8.60;99.90;;;;;;5072759;28;20024;-79
2022/01/04 03:27:55;;;;;;;19.23;12.93;;;8.70;99.90;;;;;;5072897;28;20477;-79
2022/01/04 03:30:20;;;;;;;20.63;13.05;;;8.70;99.90;;;;;;5072919;28;20525;-79
2022/01/04 03:32:46;;;;;;;17.98;13.00;;;8.80;99.90;;;;;;5072947;28;20384;-79
2022/01/04 03:35:12;;;;;;;18.05;13.70;;;8.70;99.90;;;;;;5072494;28;20017;-80
2022/01/04 03:37:38;;;;;;;21.45;14.00;;;8.80;99.90;;;;;;5072843;28;20534;-80
2022/01/04 03:40:05;;;;;;;20.67;15.07;;;9.00;99.90;;;;;;5071609;28;20024;-80
2022/01/04 03:42:31;;;;;;;21.05;14.63;;;8.80;99.90;;;;;;5072732;28;20136;-80
2022/01/04 03:44:57;;;;;;;21.85;15.50;;;8.80;99.90;;;;;;5072824;28;20107;-80
2022/01/04 03:47:22;;;;;;;24.52;14.48;;;8.80;99.90;;;;;;5072698;28;20070;-80
2022/01/04 03:49:48;;;;;;;24.35;15.40;;;8.60;99.90;;;;;;5072443;28;20449;-79
2022/01/04 03:52:14;;;;;;;23.17;14.93;;;8.60;99.90;;;;;;5072656;28;20111;-80
2022/01/04 03:54:39;;;;;;;21.25;15.10;;;8.60;99.90;;;;;;5072378;28;20056;-80
2022/01/04 03:57:06;;;;;;;23.60;15.90;;;8.50;99.90;;;;;;5076723;28;20035;-80
2022/01/04 03:59:31;;;;;;;21.48;14.85;;;8.60;99.90;;;;;;5077109;28;20346;-80
2022/01/04 04:01:57;;;;;;;22.67;16.88;;;8.80;99.90;;;;;;5076522;28;20195;-80
2022/01/04 04:04:23;;;;;;;23.25;15.77;;;8.80;99.90;;;;;;5076643;28;20388;-80
2022/01/04 04:06:48;;;;;;;21.25;14.93;;;8.70;99.90;;;;;;5076501;28;20029;-81
2022/01/04 04:09:14;;;;;;;24.25;15.57;;;8.70;99.90;;;;;;5076480;28;20063;-77
2022/01/04 04:11:40;;;;;;;27.38;16.55;;;8.90;99.90;;;;;;5076349;28;20043;-79
2022/01/04 04:14:05;;;;;;;23.95;16.05;;;8.70;99.90;;;;;;5076509;28;20028;-80
2022/01/04 04:16:33;;;;;;;24.35;17.52;;;8.60;99.90;;;;;;5075089;28;20158;-80
2022/01/04 04:18:59;;;;;;;23.60;16.25;;;8.50;99.90;;;;;;5075983;28;20488;-80
2022/01/04 04:21:25;;;;;;;26.70;16.92;;;8.50;99.90;;;;;;5076142;28;20125;-78
2022/01/04 04:23:51;;;;;;;24.08;15.68;;;8.50;99.90;;;;;;5076308;28;20090;-79
2022/01/04 04:26:16;;;;;;;23.70;16.80;;;8.50;99.90;;;;;;5075807;28;20021;-79
2022/01/04 04:28:42;;;;;;;29.70;16.65;;;8.50;99.90;;;;;;5076186;28;20032;-80
2022/01/04 04:31:08;;;;;;;23.10;15.65;;;8.50;99.90;;;;;;5076051;28;20029;-80
2022/01/04 04:33:33;;;;;;;28.00;17.42;;;8.50;99.90;;;;;;5075836;28;20400;-80
2022/01/04 04:35:59;;;;;;;26.80;17.42;;;8.50;99.90;;;;;;5075935;28;20077;-80
2022/01/04 04:38:25;;;;;;;22.83;14.95;;;8.50;99.90;;;;;;5075972;28;20033;-80
2022/01/04 04:40:51;;;;;;;30.35;17.00;;;8.50;99.90;;;;;;5075916;28;20024;-79
2022/01/04 04:43:17;;;;;;;28.35;15.90;;;8.50;99.90;;;;;;5076002;28;20036;-79
2022/01/04 04:45:42;;;;;;;25.33;16.45;;;8.50;99.90;;;;;;5075732;28;20032;-80
2022/01/04 04:48:08;;;;;;;27.05;15.25;;;8.60;99.90;;;;;;5075320;28;20393;-80
2022/01/04 04:50:34;;;;;;;23.40;14.73;;;8.50;99.90;;;;;;5075787;28;20109;-79
2022/01/04 04:53:01;;;;;;;24.80;14.07;;;8.50;99.90;;;;;;5075669;28;20024;-79
2022/01/04 04:55:26;;;;;;;21.00;14.77;;;8.50;99.90;;;;;;5075837;28;20024;-80
2022/01/04 04:57:52;;;;;;;20.88;13.18;;;8.50;99.90;;;;;;5075383;28;20025;-76
2022/01/04 05:00:18;;;;;;;24.48;13.15;;;8.50;99.90;;;;;;5075700;28;20028;-79
2022/01/04 05:02:44;;;;;;;19.77;13.90;;;8.50;99.90;;;;;;5075087;28;20060;-80
2022/01/04 05:05:10;;;;;;;22.25;12.10;;;8.70;99.90;;;;;;5075332;28;20036;-80
2022/01/04 05:07:35;;;;;;;17.95;11.25;;;8.60;99.90;;;;;;5074097;28;20103;-80
2022/01/04 05:10:04;;;;;;;15.90;11.85;;;8.80;99.90;;;;;;5075176;28;20599;-80
2022/01/04 05:12:30;;;;;;;15.07;11.15;;;8.70;99.90;;;;;;5075245;28;20025;-80
2022/01/04 05:14:57;;;;;;;15.88;11.02;;;8.60;99.90;;;;;;5074047;28;20460;-80
2022/01/04 05:17:22;;;;;;;17.10;10.10;;;8.60;99.90;;;;;;5074913;28;20116;-80
2022/01/04 05:19:48;;;;;;;17.95;10.63;;;8.60;99.90;;;;;;5075051;28;20106;-80
2022/01/04 05:22:14;;;;;;;17.17;10.48;;;8.70;99.90;;;;;;5075010;28;20033;-80
2022/01/04 05:24:40;;;;;;;13.32;8.70;;;8.50;99.90;;;;;;5075046;28;20465;-79
2022/01/04 05:27:06;;;;;;;16.40;10.30;;;8.50;99.90;;;;;;5075004;28;20081;-80
2022/01/04 05:29:32;;;;;;;16.35;9.88;;;8.40;99.90;;;;;;5074857;28;20062;-80
2022/01/04 05:31:57;;;;;;;17.10;10.45;;;8.40;99.90;;;;;;5074539;28;20508;-79
2022/01/04 05:34:25;;;;;;;18.08;10.40;;;8.50;99.90;;;;;;5075004;28;20025;-80
2022/01/04 05:36:51;;;;;;;16.00;9.90;;;8.60;99.90;;;;;;5074926;28;20112;-78
2022/01/04 05:39:17;;;;;;;18.52;10.05;;;8.50;99.90;;;;;;5074634;28;20377;-80
2022/01/04 05:41:42;;;;;;;17.52;9.93;;;8.30;99.90;;;;;;5074877;28;20024;-80
2022/01/04 05:44:08;;;;;;;15.88;11.35;;;8.40;99.90;;;;;;5074717;28;20059;-80
2022/01/04 05:46:34;;;;;;;20.52;10.70;;;8.50;99.90;;;;;;5074473;28;20068;-80
2022/01/04 05:49:00;;;;;;;20.42;10.40;;;8.30;99.90;;;;;;5074620;28;20021;-80
2022/01/04 05:51:25;;;;;;;18.95;11.15;;;8.30;99.90;;;;;;5074870;28;20036;-81
2022/01/04 05:53:51;;;;;;;18.52;10.20;;;8.30;99.90;;;;;;5074407;28;20060;-80
2022/01/04 05:56:17;;;;;;;17.33;10.38;;;8.40;99.90;;;;;;5074592;28;20028;-80
2022/01/04 05:58:42;;;;;;;15.95;10.07;;;8.40;99.90;;;;;;5074491;28;20032;-80
2022/01/04 06:01:08;;;;;;;18.98;11.18;;;8.30;99.90;;;;;;5074002;28;20028;-80
2022/01/04 06:03:34;;;;;;;18.42;10.57;;;8.40;99.90;;;;;;5073264;28;20056;-80
2022/01/04 06:05:59;;;;;;;18.23;10.32;;;8.40;99.90;;;;;;5074430;28;20017;-79
2022/01/04 06:08:32;;;;;;;21.42;10.18;;;8.50;99.90;;;;;;5073951;28;20439;-80
2022/01/04 06:10:58;;;;;;;18.75;10.18;;;8.40;99.90;;;;;;5074311;28;20028;-80
2022/01/04 06:16:08;;;;;;;23.45;10.50;;;8.40;99.90;;;;;;5074111;28;20040;-79
2022/01/04 06:18:34;;;;;;;19.52;9.77;;;8.30;99.90;;;;;;5073528;28;20032;-79
2022/01/04 06:20:59;;;;;;;18.20;8.93;;;8.30;99.90;;;;;;5074140;28;20115;-79
2022/01/04 06:23:25;;;;;;;17.13;8.98;;;8.20;99.90;;;;;;5072859;28;20082;-78
2022/01/04 06:25:54;;;;;;;18.98;10.35;;;8.20;99.90;;;;;;5055906;28;20100;-81
2022/01/04 06:28:20;;;;;;;19.55;10.00;;;8.20;99.90;;;;;;5073571;28;20024;-80
2022/01/04 06:30:49;;;;;;;18.25;9.45;;;8.40;99.90;;;;;;5072514;28;20033;-79
2022/01/04 06:33:19;;;;;;;17.05;9.02;;;8.40;99.90;;;;;;5073799;28;20530;-80
2022/01/04 06:35:46;;;;;;;18.75;8.75;;;8.30;99.90;;;;;;5073544;28;20060;-80
2022/01/04 06:38:11;;;;;;;17.90;9.07;;;8.30;99.90;;;;;;5073654;28;20102;-79
2022/01/04 06:40:37;;;;;;;18.10;9.27;;;8.30;99.90;;;;;;5073694;28;20050;-79
2022/01/04 06:43:03;;;;;;;15.38;8.00;;;8.30;99.90;;;;;;5071313;28;20040;-77
2022/01/04 06:45:28;;;;;;;17.13;7.72;;;8.50;99.90;;;;;;5069789;28;20365;-79
2022/01/04 06:47:54;;;;;;;14.90;8.13;;;8.40;99.90;;;;;;5073506;28;20041;-77
2022/01/04 06:50:20;;;;;;;14.07;7.68;;;8.30;99.90;;;;;;5073674;28;20150;-80
2022/01/04 06:52:46;;;;;;;17.05;8.30;;;8.40;99.90;;;;;;5073535;28;20045;-78
2022/01/04 06:55:13;;;;;;;15.02;7.50;;;8.50;99.90;;;;;;5073258;28;20027;-80
2022/01/04 06:57:39;;;;;;;13.02;7.20;;;8.50;99.90;;;;;;5072909;28;20469;-80
2022/01/04 07:00:05;;;;;;;14.52;7.40;;;8.50;99.90;;;;;;5073287;28;20025;-76
2022/01/04 07:02:31;;;;;;;19.83;7.78;;;8.40;99.90;;;;;;5073264;28;20036;-79
2022/01/04 07:04:57;;;;;;;15.48;7.15;;;8.50;99.90;;;;;;5073161;28;20028;-79
2022/01/04 07:07:24;;;;;;;18.23;7.50;;;8.50;99.90;;;;;;5073120;28;20021;-78
2022/01/04 07:09:50;;;;;;;14.23;6.70;;;8.60;99.90;;;;;;5072960;28;20385;-79
2022/01/04 07:12:15;;;;;;;14.15;6.60;;;8.50;99.90;;;;;;5072809;28;20025;-79
2022/01/04 07:14:41;;;;;;;12.90;6.65;;;8.70;99.90;;;;;;5072952;28;20491;-79
2022/01/04 07:17:07;;;;;;;16.55;7.35;;;8.50;99.90;;;;;;5072762;28;20074;-78
2022/01/04 07:19:33;;;;;;;13.60;6.45;;;8.60;99.90;;;;;;5072883;28;20385;-79
2022/01/04 07:21:59;;;;;;;19.48;6.78;;;8.60;99.90;;;;;;5073092;28;20040;-80
2022/01/04 07:24:25;;;;;;;14.23;7.22;;;8.50;99.90;;;;;;5072924;28;20029;-80
2022/01/04 07:26:51;;;;;;;11.60;5.68;;;8.50;99.90;;;;;;5070968;28;20108;-79
2022/01/04 07:29:17;;;;;;;11.68;5.85;;;8.40;99.90;;;;;;5072207;28;20115;-80
2022/01/04 07:31:43;;;;;;;15.80;6.15;;;8.40;99.90;;;;;;5072789;28;20412;-80
2022/01/04 07:34:09;;;;;;;11.90;6.40;;;8.50;99.90;;;;;;5072924;28;20036;-79
2022/01/04 07:36:35;;;;;;;13.48;6.95;;;8.50;99.90;;;;;;5072810;28;20059;-79
2022/01/04 07:39:00;;;;;;;10.90;6.22;;;8.50;99.90;;;;;;5072730;28;20065;-79
2022/01/04 07:41:26;;;;;;;13.05;6.15;;;8.50;99.90;;;;;;5072259;28;20362;-79
2022/01/04 07:43:53;;;;;;;17.90;7.00;;;8.50;99.90;;;;;;5072874;28;20464;-80
2022/01/04 07:46:19;;;;;;;12.40;6.65;;;8.40;99.90;;;;;;5072389;28;20029;-79
2022/01/04 07:48:45;;;;;;;10.75;6.38;;;8.40;99.90;;;;;;5072885;28;20032;-79
2022/01/04 07:51:11;;;;;;;15.23;5.43;;;8.40;99.90;;;;;;5072613;28;20028;-79
2022/01/04 07:53:37;;;;;;;16.35;6.93;;;8.40;99.90;;;;;;5072511;28;20048;-80
2022/01/04 07:56:03;;;;;;;12.63;6.68;;;8.40;99.90;;;;;;5072236;28;20017;-79
2022/01/04 07:58:29;;;;;;;18.65;6.70;;;8.50;99.90;;;;;;5072381;28;20564;-79
2022/01/04 08:00:55;;;;;;;12.15;6.63;;;8.50;99.90;;;;;;5072424;28;20023;-78
2022/01/04 08:03:21;;;;;;;13.82;7.13;;;8.50;99.90;;;;;;5072554;28;20439;-79
2022/01/04 08:05:47;;;;;;;14.25;7.53;;;8.50;99.90;;;;;;5072482;28;20025;-79
2022/01/04 08:08:13;;;;;;;10.25;7.25;;;8.50;99.90;;;;;;5072392;28;20378;-79
2022/01/04 08:10:39;;;;;;;14.15;6.85;;;8.60;99.90;;;;;;5071960;28;20029;-78
2022/01/04 08:13:05;;;;;;;12.95;7.88;;;8.50;99.90;;;;;;5072515;28;20029;-78
2022/01/04 08:15:31;;;;;;;15.88;8.00;;;8.50;99.90;;;;;;5071066;28;20028;-78
2022/01/04 08:17:58;;;;;;;13.30;6.80;;;8.50;99.90;;;;;;5072277;28;20085;-78
2022/01/04 08:20:23;;;;;;;12.80;8.05;;;8.40;99.90;;;;;;5072232;28;20044;-78
2022/01/04 08:22:49;;;;;;;10.50;7.78;;;8.50;99.90;;;;;;5072106;28;20127;-77
2022/01/04 08:25:15;;;;;;;13.02;8.52;;;8.50;99.90;;;;;;5072151;28;20035;-79
2022/01/04 08:27:40;;;;;;;14.60;8.82;;;8.50;99.90;;;;;;5072158;28;20508;-79
2022/01/04 08:30:09;;;;;;;17.92;8.98;;;8.40;99.90;;;;;;5072188;28;20038;-79
2022/01/04 08:32:35;;;;;;;15.70;8.52;;;8.40;99.90;;;;;;5072059;28;20111;-79
2022/01/04 08:35:02;;;;;;;12.63;8.52;;;8.40;99.90;;;;;;5072211;28;20107;-79
2022/01/04 08:37:29;;;;;;;16.05;10.27;;;8.40;99.90;;;;;;5070768;28;20055;-79
2022/01/04 08:39:55;;;;;;;13.82;10.57;;;8.50;99.90;;;;;;5071907;28;20023;-79
2022/01/04 08:42:24;;;;;;;15.15;10.35;;;8.50;99.90;;;;;;5075321;28;20135;-79
2022/01/04 08:44:50;;;;;;;18.23;10.40;;;8.50;99.90;;;;;;5075839;28;20501;-79
2022/01/04 08:47:16;;;;;;;18.45;11.73;;;8.50;99.90;;;;;;5074362;28;20127;-78
2022/01/04 08:49:42;;;;;;;20.00;10.77;;;8.50;99.90;;;;;;5075435;28;20045;-80
2022/01/04 08:52:08;;;;;;;17.05;11.43;;;8.60;99.90;;;;;;5075635;28;20510;-79
2022/01/04 08:54:35;;;;;;;17.00;11.65;;;8.60;99.90;;;;;;5075134;28;20021;-79
2022/01/04 08:57:02;;;;;;;16.10;11.45;;;8.50;99.90;;;;;;5075557;28;20442;-79
2022/01/04 08:59:28;;;;;;;19.25;11.23;;;8.50;99.90;;;;;;5075425;28;20500;-79
2022/01/04 09:01:56;;;;;;;19.90;12.73;;;8.50;99.90;;;;;;5075241;28;20021;-77
2022/01/04 09:04:21;;;;;;;16.85;11.23;;;8.50;99.90;;;;;;5075456;28;20080;-78
2022/01/04 09:06:48;;;;;;;19.08;13.40;;;8.60;99.90;;;;;;5074088;28;20052;-78
2022/01/04 09:09:14;;;;;;;16.83;12.35;;;8.60;99.90;;;;;;5074942;28;20032;-79
2022/01/04 09:11:40;;;;;;;16.17;12.05;;;8.50;99.90;;;;;;5075262;28;20039;-78
2022/01/04 09:14:40;;;;;;;18.70;11.80;;;8.50;99.90;;;;;;5073981;28;20013;-79
2022/01/04 09:19:37;;;;;;;19.50;12.85;;;8.50;99.90;;;;;;5074868;28;20028;-79
2022/01/04 09:22:04;;;;;;;18.35;12.50;;;8.50;99.90;;;;;;5074900;28;20040;-78
2022/01/04 09:24:30;;;;;;;21.58;15.75;;;8.50;99.90;;;;;;5074881;28;20840;-78
2022/01/04 09:26:56;;;;;;;30.85;16.95;;;8.50;99.90;;;;;;5073771;28;20051;-79
2022/01/04 09:29:23;;;;;;;30.65;16.70;;;8.60;99.90;;;;;;5074715;28;20101;-79
2022/01/04 09:31:53;;;;;;;19.77;14.88;;;8.60;99.90;;;;;;5074985;28;20075;-79
2022/01/04 09:34:19;;;;;;;20.08;13.93;;;8.50;99.90;;;;;;5074735;28;20492;-79
2022/01/04 09:36:45;;;;;;;17.77;13.13;;;8.40;99.90;;;;;;5074328;28;20415;-78
2022/01/04 09:39:15;;;;;;;20.15;13.38;;;8.50;99.90;;;;;;5074771;28;20033;-78
2022/01/04 09:41:42;;;;;;;18.83;12.93;;;8.50;99.90;;;;;;5074557;28;20469;-78
2022/01/04 09:44:09;;;;;;;18.95;13.50;;;8.50;99.90;;;;;;5074702;28;20052;-78
2022/01/04 09:46:35;;;;;;;14.93;9.70;;;8.50;99.90;;;;;;5074553;28;20033;-76
2022/01/04 09:49:01;;;;;;;17.63;12.70;;;8.50;99.90;;;;;;5074748;28;20025;-78
2022/01/04 09:51:28;;;;;;;19.05;13.52;;;8.50;99.90;;;;;;5074199;28;20037;-78
2022/01/04 09:53:54;;;;;;;16.85;12.93;;;8.60;99.90;;;;;;5072651;28;20033;-79
2022/01/04 09:56:20;;;;;;;19.50;13.45;;;8.50;99.90;;;;;;5073238;28;20380;-78
2022/01/04 09:58:46;;;;;;;19.30;11.43;;;8.70;99.90;;;;;;5074318;28;20028;-79
2022/01/04 10:01:22;;;;;;;22.00;13.75;;;8.50;99.90;;;;;;5073276;28;20078;-79
2022/01/04 10:03:48;;;;;;;22.13;12.98;;;8.60;99.90;;;;;;5073974;28;20120;-78
2022/01/04 10:06:16;;;;;;;15.77;9.98;;;8.60;99.90;;;;;;5073575;28;20023;-79
2022/01/04 10:08:53;;;;;;;19.88;12.77;;;8.50;99.90;;;;;;5073971;28;20040;-79
2022/01/04 10:11:34;;;;;;;13.45;10.02;;;8.50;99.90;;;;;;5074193;28;20085;-78
2022/01/04 10:14:21;;;;;;;23.02;12.10;;;8.60;99.90;;;;;;5074126;28;20161;-78
2022/01/04 10:16:58;;;;;;;15.43;11.50;;;8.60;99.90;;;;;;5073749;28;20123;-79
2022/01/04 10:19:31;;;;;;;21.85;13.00;;;8.60;99.90;;;;;;5073698;28;20063;-79
2022/01/04 10:22:09;;;;;;;24.98;17.95;;;8.70;99.90;;;;;;5072422;28;20036;-79
2022/01/04 10:24:35;;;;;;;29.00;22.70;;;8.70;99.90;;;;;;5073662;28;20052;-77
2022/01/04 10:27:21;;;;;;;30.17;23.48;;;8.70;99.90;;;;;;5073698;28;20421;-78
2022/01/04 10:29:48;;;;;;;33.47;22.55;;;8.80;99.90;;;;;;5073533;28;20059;-79
2022/01/04 10:32:14;;;;;;;26.77;19.08;;;8.80;99.90;;;;;;5073723;28;20036;-79
2022/01/04 10:34:49;;;;;;;25.45;17.60;;;8.90;99.90;;;;;;5073463;28;20435;-78
2022/01/04 10:37:36;;;;;;;20.13;14.23;;;8.90;99.90;;;;;;5073652;28;20070;-79
2022/01/04 10:40:07;;;;;;;17.30;11.10;;;8.90;99.90;;;;;;5072291;28;20074;-79
2022/01/04 10:42:33;;;;;;;15.68;11.15;;;8.90;99.90;;;;;;5073404;28;20485;-79
2022/01/04 10:44:59;;;;;;;16.00;9.88;;;8.90;99.90;;;;;;5073421;28;20028;-79
2022/01/04 10:47:26;;;;;;;19.17;10.20;;;8.90;99.90;;;;;;5073442;28;20031;-78
2022/01/04 10:49:52;;;;;;;14.88;9.30;;;9.00;99.90;;;;;;5073297;28;20180;-79
2022/01/04 10:52:22;;;;;;;28.67;11.82;;;9.00;99.90;;;;;;5073492;28;20552;-78
2022/01/04 10:55:15;;;;;;;18.40;10.20;;;9.00;99.90;;;;;;5073216;28;20036;-79
2022/01/04 10:57:41;;;;;;;17.60;10.73;;;9.00;99.90;;;;;;5072731;28;20051;-79
2022/01/04 11:00:20;;;;;;;20.88;11.20;;;9.20;99.90;;;;;;5073048;28;20025;-77
2022/01/04 11:02:46;;;;;;;25.95;12.13;;;9.20;99.90;;;;;;5072990;28;20477;-78
2022/01/04 11:05:18;;;;;;;18.98;10.57;;;9.10;99.90;;;;;;5071844;28;20024;-79
2022/01/04 11:08:01;;;;;;;21.02;9.38;;;9.10;99.90;;;;;;5073196;28;20029;-80
2022/01/04 11:10:29;;;;;;;21.35;12.65;;;9.10;99.90;;;;;;5072954;28;20473;-79
2022/01/04 11:12:59;;;;;;;22.35;11.27;;;9.10;99.90;;;;;;5073437;28;20040;-79
2022/01/04 11:15:25;;;;;;;17.85;10.32;;;9.10;99.90;;;;;;5071664;28;20021;-80
2022/01/04 11:17:52;;;;;;;21.58;11.52;;;9.10;99.90;;;;;;5072935;28;20056;-79
2022/01/04 11:20:18;;;;;;;23.77;10.90;;;9.10;99.90;;;;;;5072648;28;20028;-79
2022/01/04 11:22:45;;;;;;;18.10;9.88;;;9.10;99.90;;;;;;5072925;28;20182;-78
2022/01/04 11:25:13;;;;;;;28.17;10.25;;;9.10;99.90;;;;;;5072787;28;20142;-79
2022/01/04 11:27:40;;;;;;;23.83;10.30;;;9.30;99.90;;;;;;5052928;28;20032;-78
2022/01/04 11:30:41;;;;;;;17.83;10.23;;;9.20;99.90;;;;;;5052742;28;20044;-76
2022/01/04 11:33:27;;;;;;;23.42;11.40;;;9.30;99.90;;;;;;5052754;28;20033;-78
2022/01/04 11:35:54;;;;;;;15.82;10.60;;;9.30;99.90;;;;;;5052626;28;20040;-78
2022/01/04 11:38:34;;;;;;;25.50;10.45;;;9.30;99.90;;;;;;5052850;28;20017;-79
2022/01/04 11:41:01;;;;;;;25.17;11.30;;;9.20;99.90;;;;;;5052602;28;20029;-79
2022/01/04 11:43:41;;;;;;;22.38;10.32;;;9.30;99.90;;;;;;5052820;28;20033;-79
2022/01/04 11:46:07;;;;;;;19.83;11.55;;;9.30;99.90;;;;;;5052761;28;20110;-79
2022/01/04 11:48:38;;;;;;;27.27;10.25;;;9.30;99.90;;;;;;5051233;28;20029;-79
2022/01/04 11:51:08;;;;;;;24.20;12.13;;;9.30;99.90;;;;;;5052517;28;20120;-79
2022/01/04 11:53:35;;;;;;;20.58;9.85;;;9.40;99.90;;;;;;5052680;28;20059;-79
2022/01/04 11:56:08;;;;;;;18.58;10.43;;;9.40;99.90;;;;;;5052578;28;20028;-79
2022/01/04 11:58:50;;;;;;;18.33;8.82;;;9.40;99.90;;;;;;5053058;28;20037;-79
2022/01/04 12:01:25;;;;;;;26.33;10.45;;;9.40;99.90;;;;;;5051179;28;20354;-78
2022/01/04 12:03:51;;;;;;;16.73;9.80;;;9.50;99.90;;;;;;5052182;28;20045;-79
2022/01/04 12:06:20;;;;;;;26.73;10.50;;;9.50;99.90;;;;;;5052415;28;20100;-79
2022/01/04 12:08:50;;;;;;;18.08;8.48;;;9.50;99.90;;;;;;5055893;28;20039;-79
2022/01/04 12:11:39;;;;;;;18.08;10.50;;;9.50;99.90;;;;;;5071191;28;20021;-79
2022/01/04 12:14:22;;;;;;;18.73;10.38;;;9.60;99.90;;;;;;5072577;28;20472;-79
2022/01/04 12:17:09;;;;;;;17.13;9.88;;;9.60;99.90;;;;;;5074583;28;20119;-79
2022/01/04 12:19:50;;;;;;;20.95;8.90;;;9.60;99.90;;;;;;5076257;28;20481;-79
2022/01/04 12:22:30;;;;;;;16.02;10.50;;;9.50;99.90;;;;;;5076074;28;20040;-79
2022/01/04 12:25:04;;;;;;;25.45;11.75;;;9.60;99.90;;;;;;5076087;28;20033;-79
2022/01/04 12:27:29;;;;;;;21.15;10.48;;;9.60;99.90;;;;;;5074804;28;20036;-79
2022/01/04 12:30:24;;;;;;;9.65;4.60;;;9.60;99.90;;;;;;5074726;28;20029;-79
2022/01/04 12:32:50;;;;;;;6.70;1.45;;;9.50;99.90;;;;;;5074372;28;20032;-79
2022/01/04 12:35:16;;;;;;;9.10;1.20;;;9.20;99.90;;;;;;5075954;28;20051;-78
2022/01/04 12:37:42;;;;;;;4.65;0.82;;;8.90;99.90;;;;;;5075958;28;20121;-77
2022/01/04 12:40:09;;;;;;;3.35;1.20;;;8.40;99.90;;;;;;5075904;28;20064;-75
2022/01/04 12:42:34;;;;;;;6.03;1.20;;;8.20;99.90;;;;;;5075721;28;20040;-76
2022/01/04 12:45:00;;;;;;;4.10;0.90;;;8.20;99.90;;;;;;5075806;28;20027;-78
2022/01/04 12:47:27;;;;;;;4.40;1.20;;;8.10;99.90;;;;;;5075386;28;20024;-77
2022/01/04 12:49:56;;;;;;;4.07;1.25;;;8.00;99.90;;;;;;5075652;28;20036;-77
2022/01/04 12:52:22;;;;;;;4.55;1.40;;;8.10;99.90;;;;;;5075487;28;20062;-76